createdAt,value
2024-03-04T00:02:44.795Z,13.32
2024-03-04T00:04:46.677Z,15.50
2024-03-04T00:08:50.282Z,12.00
2024-03-04T00:10:53.019Z,13.60
2024-03-04T00:12:56.886Z,15.23
2024-03-04T00:14:58.903Z,13.20
2024-03-04T00:17:01.378Z,11.70
2024-03-04T00:19:05.160Z,14.17
2024-03-04T00:21:06.931Z,13.70
2024-03-04T00:23:08.738Z,12.60
2024-03-04T00:25:15.612Z,13.20
2024-03-04T00:27:17.677Z,13.00
2024-03-04T00:29:19.465Z,13.00
2024-03-04T00:33:22.967Z,10.55
2024-03-04T00:37:27.205Z,14.57
2024-03-04T00:39:29.091Z,15.67
2024-03-04T00:43:32.607Z,12.00
2024-03-04T00:47:36.137Z,16.23
2024-03-04T00:51:39.603Z,13.90
2024-03-04T00:53:41.953Z,17.00
2024-03-04T00:55:44.165Z,12.83
2024-03-04T00:57:46.042Z,14.57
2024-03-04T01:01:51.486Z,13.25
2024-03-04T01:03:53.541Z,15.70
2024-03-04T01:05:55.497Z,13.33
2024-03-04T01:09:59.014Z,17.75
2024-03-04T01:14:04.178Z,15.53
2024-03-04T01:16:06.500Z,14.57
2024-03-04T01:18:11.071Z,15.77
2024-03-04T01:20:14.822Z,15.23
2024-03-04T01:22:17.992Z,15.57
2024-03-04T01:24:20.007Z,15.27
2024-03-04T01:28:23.645Z,19.98
2024-03-04T01:30:28.455Z,15.77
2024-03-04T01:32:30.302Z,15.53
2024-03-04T01:36:33.973Z,15.45
2024-03-04T01:40:37.525Z,15.05
2024-03-04T01:42:39.381Z,15.47
2024-03-04T01:44:41.246Z,15.70
2024-03-04T01:50:49.238Z,15.67
2024-03-04T01:52:52.048Z,15.53
2024-03-04T01:54:56.411Z,13.70
2024-03-04T01:56:58.907Z,15.27
2024-03-04T01:59:01.849Z,15.50
2024-03-04T02:01:08.524Z,15.57
2024-03-04T02:03:13.829Z,14.20
2024-03-04T02:05:16.086Z,15.47
2024-03-04T02:07:18.595Z,17.60
2024-03-04T02:09:21.392Z,13.67
2024-03-04T02:11:23.589Z,16.77
2024-03-04T02:13:26.879Z,13.43
2024-03-04T02:15:29.295Z,14.40
2024-03-04T02:17:34.326Z,16.47
2024-03-04T02:19:36.341Z,14.20
2024-03-04T02:21:43.981Z,14.27
2024-03-04T02:23:45.747Z,13.70
2024-03-04T02:27:56.941Z,15.07
2024-03-04T02:29:58.975Z,12.37
2024-03-04T02:32:01.187Z,12.73
2024-03-04T02:34:03.245Z,13.60
2024-03-04T02:36:06.203Z,11.60
2024-03-04T02:38:09.790Z,15.17
2024-03-04T02:40:12.105Z,11.43
2024-03-04T02:42:13.873Z,10.77
2024-03-04T02:44:15.849Z,13.27
2024-03-04T02:46:18.067Z,15.67
2024-03-04T02:48:20.108Z,13.53
2024-03-04T02:50:22.074Z,13.03
2024-03-04T02:52:23.882Z,13.00
2024-03-04T02:56:27.395Z,14.75
2024-03-04T03:00:31.275Z,12.50
2024-03-04T03:05:00.947Z,11.87
2024-03-04T03:07:02.848Z,12.43
2024-03-04T03:11:08.781Z,11.67
2024-03-04T03:13:10.714Z,14.70
2024-03-04T03:17:14.152Z,14.27
2024-03-04T03:19:26.287Z,14.35
2024-03-04T03:21:29.054Z,11.23
2024-03-04T03:23:30.842Z,11.73
2024-03-04T03:25:32.640Z,13.77
2024-03-04T03:29:36.180Z,11.95
2024-03-04T03:31:38.713Z,10.07
2024-03-04T03:33:40.724Z,10.83
2024-03-04T03:35:42.658Z,11.10
2024-03-04T03:37:44.710Z,9.43
2024-03-04T03:39:46.598Z,11.13
2024-03-04T03:41:48.551Z,11.43
2024-03-04T03:45:52.842Z,10.75
2024-03-04T03:47:54.630Z,11.13
2024-03-04T03:51:58.281Z,9.23
2024-03-04T03:54:01.521Z,11.10
2024-03-04T03:56:07.157Z,11.17
2024-03-04T03:58:09.002Z,11.30
2024-03-04T04:02:14.408Z,10.73
2024-03-04T04:04:16.354Z,11.17
2024-03-04T04:08:19.887Z,12.52
2024-03-04T04:10:21.941Z,9.02
2024-03-04T04:12:23.769Z,11.27
2024-03-04T04:16:30.585Z,9.93
2024-03-04T04:18:32.446Z,11.40
2024-03-04T04:22:36.229Z,10.38
2024-03-04T04:24:41.311Z,12.47
2024-03-04T04:26:43.209Z,11.50
2024-03-04T04:28:45.246Z,9.90
2024-03-04T04:30:47.082Z,10.97
2024-03-04T04:36:53.240Z,13.13
2024-03-04T04:38:55.107Z,12.40
2024-03-04T04:42:59.846Z,12.73
2024-03-04T04:45:01.649Z,11.47
2024-03-04T04:49:05.879Z,13.40
2024-03-04T04:51:07.748Z,14.37
2024-03-04T04:55:15.811Z,11.53
2024-03-04T04:57:21.255Z,12.23
2024-03-04T04:59:23.067Z,10.63
2024-03-04T05:03:52.041Z,12.70
2024-03-04T05:05:56.862Z,10.55
2024-03-04T05:10:00.489Z,12.88
2024-03-04T05:14:04.385Z,12.93
2024-03-04T05:16:07.374Z,13.23
2024-03-04T05:18:11.051Z,12.83
2024-03-04T05:20:13.135Z,14.90
2024-03-04T05:22:15.108Z,15.70
2024-03-04T05:24:17.364Z,14.80
2024-03-04T05:26:19.155Z,16.73
2024-03-04T05:30:22.651Z,15.38
2024-03-04T05:34:27.035Z,13.68
2024-03-04T05:36:28.945Z,13.63
2024-03-04T05:40:33.148Z,16.75
2024-03-04T05:42:38.494Z,12.53
2024-03-04T05:44:40.627Z,13.07
2024-03-04T05:46:43.003Z,14.77
2024-03-04T05:48:46.650Z,13.93
2024-03-04T05:50:48.414Z,15.13
2024-03-04T05:52:50.251Z,14.38
2024-03-04T05:56:54.092Z,12.93
2024-03-04T05:58:56.230Z,16.55
2024-03-04T06:00:58.495Z,19.23
2024-03-04T06:03:00.478Z,15.87
2024-03-04T06:07:04.526Z,17.25
2024-03-04T06:09:09.779Z,18.13
2024-03-04T06:11:11.690Z,18.30
2024-03-04T06:15:15.436Z,17.35
2024-03-04T06:17:17.547Z,17.40
2024-03-04T06:19:19.420Z,18.67
2024-03-04T06:23:22.905Z,24.17
2024-03-04T06:25:24.980Z,19.38
2024-03-04T06:27:26.767Z,20.87
2024-03-04T06:29:28.743Z,21.05
2024-03-04T06:33:44.213Z,21.75
2024-03-04T06:35:53.738Z,19.27
2024-03-04T06:37:55.582Z,20.20
2024-03-04T06:41:58.995Z,19.90
2024-03-04T06:44:00.814Z,18.40
2024-03-04T06:48:07.270Z,22.50
2024-03-04T06:50:09.248Z,23.07
2024-03-04T06:52:11.061Z,18.93
2024-03-04T06:56:14.975Z,21.95
2024-03-04T07:00:18.971Z,23.20
2024-03-04T07:02:20.946Z,29.13
2024-03-04T07:04:23.128Z,19.83
2024-03-04T07:06:25.990Z,18.57
2024-03-04T07:08:29.474Z,17.70
2024-03-04T07:10:33.240Z,16.60
2024-03-04T07:14:37.098Z,17.65
2024-03-04T07:18:41.006Z,15.70
2024-03-04T07:22:44.677Z,15.88
2024-03-04T07:24:47.216Z,23.50
2024-03-04T07:26:49.012Z,19.03
2024-03-04T07:30:52.488Z,17.90
2024-03-04T07:32:54.389Z,17.13
2024-03-04T07:36:58.862Z,19.30
2024-03-04T07:39:00.744Z,19.10
2024-03-04T07:43:05.665Z,15.00
2024-03-04T07:47:10.019Z,17.23
2024-03-04T07:51:13.822Z,19.65
2024-03-04T07:53:15.667Z,17.83
2024-03-04T07:57:24.020Z,14.63
2024-03-04T07:59:26.908Z,19.70
2024-03-04T08:03:30.524Z,15.52
2024-03-04T08:05:32.439Z,12.25
2024-03-04T08:09:36.080Z,17.08
2024-03-04T08:11:38.673Z,13.65
2024-03-04T08:13:40.589Z,13.50
2024-03-04T08:15:42.508Z,14.00
2024-03-04T08:17:54.135Z,12.33
2024-03-04T08:20:00.130Z,12.30
2024-03-04T08:22:02.005Z,14.27
2024-03-04T08:26:05.627Z,14.15
2024-03-04T08:28:19.545Z,11.38
2024-03-04T08:30:26.435Z,12.40
2024-03-04T08:32:28.314Z,14.53
2024-03-04T08:34:30.511Z,15.83
2024-03-04T08:36:33.193Z,15.60
2024-03-04T08:38:35.174Z,14.40
2024-03-04T08:40:36.992Z,14.47
2024-03-04T08:44:44.530Z,10.97
2024-03-04T08:48:48.136Z,10.13
2024-03-04T08:50:50.026Z,8.98
2024-03-04T08:52:52.024Z,13.90
2024-03-04T08:54:53.893Z,11.20
2024-03-04T08:59:00.145Z,11.10
2024-03-04T09:01:02.060Z,13.10
2024-03-04T09:03:04.085Z,10.83
2024-03-04T09:05:09.809Z,10.67
2024-03-04T09:07:11.715Z,10.80
2024-03-04T09:13:17.989Z,11.95
2024-03-04T09:15:21.459Z,11.67
2024-03-04T09:17:23.464Z,10.00
2024-03-04T09:19:25.312Z,12.70
2024-03-04T09:23:29.028Z,10.75
2024-03-04T09:25:31.067Z,16.40
2024-03-04T09:27:34.021Z,13.03
2024-03-04T09:29:35.902Z,13.03
2024-03-04T09:33:43.167Z,11.97
2024-03-04T09:35:45.113Z,10.30
2024-03-04T09:37:46.934Z,11.33
2024-03-04T09:41:50.776Z,14.00
2024-03-04T09:43:53.323Z,11.50
2024-03-04T09:45:57.930Z,11.13
2024-03-04T09:48:02.104Z,11.17
2024-03-04T09:50:04.664Z,11.10
2024-03-04T09:52:09.231Z,12.00
2024-03-04T09:54:15.610Z,10.37
2024-03-04T09:56:18.391Z,10.13
2024-03-04T09:58:20.922Z,10.60
2024-03-04T10:00:24.292Z,9.90
2024-03-04T10:02:26.618Z,8.57
2024-03-04T10:04:31.391Z,9.93
2024-03-04T10:06:33.682Z,8.73
2024-03-04T10:08:36.614Z,10.57
2024-03-04T10:10:38.420Z,11.87
2024-03-04T10:15:11.203Z,10.10
2024-03-04T10:17:13.130Z,14.10
2024-03-04T10:21:21.299Z,9.57
2024-03-04T10:23:25.867Z,9.47
2024-03-04T10:25:27.829Z,8.73
2024-03-04T10:27:29.815Z,12.63
2024-03-04T10:29:31.642Z,11.97
2024-03-04T10:33:35.139Z,9.25
2024-03-04T10:35:37.232Z,10.05
2024-03-04T10:37:39.146Z,10.23
2024-03-04T10:39:41.982Z,15.17
2024-03-04T10:41:48.700Z,11.40
2024-03-04T10:43:53.329Z,12.03
2024-03-04T10:45:55.188Z,11.97
2024-03-04T10:49:59.228Z,9.43
2024-03-04T10:52:12.306Z,11.23
2024-03-04T10:54:23.171Z,12.57
2024-03-04T10:56:25.112Z,13.90
2024-03-04T10:58:28.983Z,13.77
2024-03-04T11:00:34.265Z,11.23
2024-03-04T11:02:41.483Z,15.80
2024-03-04T11:04:44.988Z,12.03
2024-03-04T11:06:47.215Z,10.10
2024-03-04T11:08:55.038Z,9.60
2024-03-04T11:11:03.923Z,12.73
2024-03-04T11:13:08.897Z,11.53
2024-03-04T11:15:12.576Z,10.40
2024-03-04T11:17:25.271Z,11.83
2024-03-04T11:19:44.242Z,9.47
2024-03-04T11:21:48.320Z,10.53
2024-03-04T11:23:52.132Z,9.50
2024-03-04T11:25:55.911Z,14.97
2024-03-04T11:27:58.188Z,15.53
2024-03-04T11:30:00.732Z,12.33
2024-03-04T11:32:06.307Z,12.43
2024-03-04T11:34:14.031Z,13.60
2024-03-04T11:36:17.445Z,12.20
2024-03-04T11:38:27.916Z,14.80
2024-03-04T11:40:29.874Z,14.27
2024-03-04T11:42:41.694Z,16.57
2024-03-04T11:44:45.317Z,15.25
2024-03-04T11:46:47.746Z,18.00
2024-03-04T11:48:49.750Z,23.00
2024-03-04T11:50:51.491Z,20.70
2024-03-04T11:55:01.545Z,15.37
2024-03-04T11:57:05.536Z,23.73
2024-03-04T11:59:08.154Z,17.60
2024-03-04T12:01:16.711Z,21.07
2024-03-04T12:03:21.795Z,15.65
2024-03-04T12:05:23.756Z,12.17
2024-03-04T12:07:26.143Z,25.07
2024-03-04T12:09:45.346Z,17.47
2024-03-04T12:11:50.079Z,16.90
2024-03-04T12:13:54.060Z,14.93
2024-03-04T12:15:58.721Z,16.00
2024-03-04T12:18:02.484Z,16.30
2024-03-04T12:20:05.301Z,13.07
2024-03-04T12:22:07.270Z,13.03
2024-03-04T12:24:09.095Z,12.53
2024-03-04T12:28:18.882Z,14.10
2024-03-04T12:30:22.474Z,12.67
2024-03-04T12:32:24.296Z,12.93
2024-03-04T12:36:31.210Z,14.47
2024-03-04T12:38:34.331Z,14.17
2024-03-04T12:40:36.261Z,15.67
2024-03-04T12:42:38.402Z,12.43
2024-03-04T12:44:40.241Z,13.67
2024-03-04T12:48:44.026Z,12.30
2024-03-04T12:50:46.892Z,13.97
2024-03-04T12:52:50.223Z,13.30
2024-03-04T12:54:54.080Z,12.53
2024-03-04T12:56:56.058Z,10.97
2024-03-04T12:58:58.108Z,12.77
2024-03-04T13:01:03.132Z,14.40
2024-03-04T13:03:05.334Z,10.93
2024-03-04T13:05:07.637Z,13.53
2024-03-04T13:07:09.720Z,11.73
2024-03-04T13:09:13.936Z,17.10
2024-03-04T13:11:17.175Z,12.33
2024-03-04T13:13:19.572Z,12.67
2024-03-04T13:15:21.521Z,15.00
2024-03-04T13:17:23.377Z,14.97
2024-03-04T13:19:25.298Z,12.57
2024-03-04T13:21:27.300Z,12.63
2024-03-04T13:23:29.235Z,12.20
2024-03-04T13:25:31.248Z,11.10
2024-03-04T13:27:36.920Z,12.65
2024-03-04T13:29:38.723Z,12.93
2024-03-04T13:33:42.612Z,12.70
2024-03-04T13:35:47.436Z,12.90
2024-03-04T13:37:50.342Z,10.07
2024-03-04T13:39:52.599Z,11.40
2024-03-04T13:41:54.458Z,13.47
2024-03-04T13:43:57.744Z,12.70
2024-03-04T13:46:00.145Z,12.37
2024-03-04T13:48:02.511Z,13.57
2024-03-04T13:50:04.673Z,11.13
2024-03-04T13:52:06.778Z,12.23
2024-03-04T13:54:09.980Z,16.65
2024-03-04T13:56:11.894Z,10.30
2024-03-04T13:58:13.760Z,11.32
2024-03-04T14:00:16.587Z,13.23
2024-03-04T14:02:18.826Z,12.65
2024-03-04T14:04:23.570Z,11.93
2024-03-04T14:06:25.416Z,11.20
2024-03-04T14:10:29.153Z,11.50
2024-03-04T14:12:31.064Z,12.23
2024-03-04T14:14:32.938Z,12.27
2024-03-04T14:16:34.804Z,12.00
2024-03-04T14:18:37.421Z,11.43
2024-03-04T14:20:39.838Z,13.38
2024-03-04T14:22:41.848Z,11.27
2024-03-04T14:24:43.715Z,11.00
2024-03-04T14:26:45.634Z,12.32
2024-03-04T14:30:49.056Z,10.88
2024-03-04T14:34:54.524Z,13.02
2024-03-04T14:36:57.154Z,11.07
2024-03-04T14:38:59.006Z,13.03
2024-03-04T14:41:00.829Z,9.70
2024-03-04T14:43:02.830Z,13.03
2024-03-04T14:45:04.908Z,15.77
2024-03-04T14:47:06.689Z,12.30
2024-03-04T14:51:12.217Z,12.88
2024-03-04T14:53:14.027Z,12.43
2024-03-04T14:57:17.785Z,13.38
2024-03-04T14:59:19.660Z,12.80
2024-03-04T15:01:21.731Z,14.73
2024-03-04T15:03:23.821Z,13.37
2024-03-04T15:05:26.332Z,16.60
2024-03-04T15:07:29.486Z,14.83
2024-03-04T15:09:31.383Z,13.37
2024-03-04T15:11:33.258Z,13.73
2024-03-04T15:13:35.160Z,16.20
2024-03-04T15:15:37.070Z,14.77
2024-03-04T15:17:39.630Z,14.17
2024-03-04T15:19:41.459Z,12.20
2024-03-04T15:23:45.802Z,14.75
2024-03-04T15:25:49.578Z,15.40
2024-03-04T15:27:51.658Z,15.03
2024-03-04T15:32:00.761Z,16.25
2024-03-04T15:34:02.748Z,14.70
2024-03-04T15:36:13.537Z,15.47
2024-03-04T15:38:20.687Z,17.43
2024-03-04T15:40:22.526Z,14.37
2024-03-04T15:44:26.287Z,13.63
2024-03-04T15:46:28.792Z,15.67
2024-03-04T15:48:30.629Z,16.63
2024-03-04T15:52:34.093Z,12.15
2024-03-04T15:56:38.057Z,11.35
2024-03-04T15:58:39.937Z,16.03
2024-03-04T16:00:41.845Z,11.73
2024-03-04T16:02:44.679Z,11.73
2024-03-04T16:04:50.121Z,14.03
2024-03-04T16:06:52.086Z,12.53
2024-03-04T16:08:53.951Z,11.93
2024-03-04T16:10:56.016Z,14.87
2024-03-04T16:12:58.044Z,13.80
2024-03-04T16:17:01.634Z,13.32
2024-03-04T16:19:03.757Z,15.77
2024-03-04T16:21:05.570Z,15.63
2024-03-04T16:25:09.586Z,14.13
2024-03-04T16:27:12.041Z,13.73
2024-03-04T16:29:14.265Z,13.67
2024-03-04T16:31:17.813Z,14.83
2024-03-04T16:33:19.826Z,13.87
2024-03-04T16:35:22.330Z,14.70
2024-03-04T16:37:24.344Z,12.13
2024-03-04T16:39:26.254Z,13.23
2024-03-04T16:43:32.520Z,14.82
2024-03-04T16:45:37.019Z,18.10
2024-03-04T16:47:39.468Z,18.10
2024-03-04T16:49:42.599Z,15.13
2024-03-04T16:51:53.656Z,16.70
2024-03-04T16:53:55.432Z,15.27
2024-03-04T16:55:57.336Z,15.88
2024-03-04T16:58:01.701Z,17.63
2024-03-04T17:00:09.752Z,17.10
2024-03-04T17:02:11.897Z,20.57
2024-03-04T17:04:13.821Z,17.00
2024-03-04T17:06:15.924Z,19.97
2024-03-04T17:08:17.822Z,15.97
2024-03-04T17:10:19.645Z,17.23
2024-03-04T17:12:21.970Z,19.47
2024-03-04T17:14:23.786Z,17.90
2024-03-04T17:18:27.277Z,13.68
2024-03-04T17:22:30.867Z,12.85
2024-03-04T17:26:34.456Z,19.42
2024-03-04T17:30:37.924Z,17.08
2024-03-04T17:34:45.086Z,17.02
2024-03-04T17:36:47.115Z,15.43
2024-03-04T17:38:48.966Z,17.20
2024-03-04T17:42:52.630Z,17.67
2024-03-04T17:46:56.185Z,18.15
2024-03-04T17:48:58.020Z,22.13
2024-03-04T17:53:01.408Z,20.92
2024-03-04T17:55:03.353Z,17.85
2024-03-04T17:57:06.520Z,17.43
2024-03-04T17:59:08.304Z,18.03
2024-03-04T18:03:20.046Z,20.77
2024-03-04T18:07:23.638Z,20.35
2024-03-04T18:09:25.557Z,24.40
2024-03-04T18:11:27.559Z,23.63
2024-03-04T18:13:30.297Z,24.13
2024-03-04T18:15:32.936Z,24.70
2024-03-04T18:17:34.779Z,27.77
2024-03-04T18:21:38.444Z,24.05
2024-03-04T18:25:43.576Z,24.05
2024-03-04T18:27:45.366Z,22.67
2024-03-04T18:31:48.959Z,29.33
2024-03-04T18:33:50.875Z,30.20
2024-03-04T18:35:52.744Z,23.23
2024-03-04T18:39:56.245Z,22.58
2024-03-04T18:41:58.965Z,21.67
2024-03-04T18:44:01.937Z,25.10
2024-03-04T18:46:07.721Z,26.67
2024-03-04T18:48:09.707Z,26.60
2024-03-04T18:50:11.637Z,28.10
2024-03-04T18:52:13.568Z,24.47
2024-03-04T18:54:18.579Z,24.40
2024-03-04T18:56:21.778Z,24.97
2024-03-04T18:58:23.854Z,27.40
2024-03-04T19:00:25.786Z,22.83
2024-03-04T19:02:28.700Z,23.40
2024-03-04T19:04:30.676Z,24.43
2024-03-04T19:06:33.838Z,22.40
2024-03-04T19:08:35.956Z,23.17
2024-03-04T19:10:37.981Z,23.77
2024-03-04T19:12:40.339Z,27.73
2024-03-04T19:14:43.020Z,30.00
2024-03-04T19:16:45.073Z,19.83
2024-03-04T19:18:47.101Z,23.00
2024-03-04T19:20:49.194Z,28.33
2024-03-04T19:22:51.213Z,27.50
2024-03-04T19:24:53.341Z,24.70
2024-03-04T19:26:55.188Z,21.73
2024-03-04T19:30:58.750Z,24.15
2024-03-04T19:35:02.712Z,25.65
2024-03-04T19:37:05.753Z,22.03
2024-03-04T19:39:08.011Z,24.13
2024-03-04T19:41:26.360Z,30.13
2024-03-04T19:43:28.185Z,29.77
2024-03-04T19:47:32.907Z,26.13
2024-03-04T19:51:36.628Z,23.88
2024-03-04T19:53:44.840Z,24.93
2024-03-04T19:55:49.180Z,25.10
2024-03-04T19:57:51.288Z,25.50
2024-03-04T19:59:53.183Z,25.23
2024-03-04T20:01:55.747Z,23.10
2024-03-04T20:03:59.476Z,26.50
2024-03-04T20:06:01.728Z,26.63
2024-03-04T20:08:03.987Z,29.87
2024-03-04T20:10:07.694Z,30.83
2024-03-04T20:12:09.778Z,26.30
2024-03-04T20:14:13.943Z,24.70
2024-03-04T20:16:17.253Z,24.70
2024-03-04T20:18:20.829Z,24.67
2024-03-04T20:20:23.438Z,29.27
2024-03-04T20:22:25.517Z,25.83
2024-03-04T20:24:28.290Z,26.10
2024-03-04T20:26:30.549Z,23.47
2024-03-04T20:28:34.877Z,21.83
2024-03-04T20:30:40.803Z,28.27
2024-03-04T20:32:42.743Z,24.77
2024-03-04T20:34:44.740Z,23.40
2024-03-04T20:36:46.779Z,26.67
2024-03-04T20:38:48.847Z,23.97
2024-03-04T20:40:51.295Z,23.17
2024-03-04T20:42:53.850Z,23.40
2024-03-04T20:44:56.050Z,21.93
2024-03-04T20:46:59.131Z,23.53
2024-03-04T20:49:01.537Z,22.67
2024-03-04T20:51:05.780Z,23.67
2024-03-04T20:53:08.227Z,25.13
2024-03-04T20:55:14.074Z,25.33
2024-03-04T20:57:16.132Z,25.87
2024-03-04T20:59:18.176Z,28.70
2024-03-04T21:01:22.025Z,24.63
2024-03-04T21:03:25.293Z,23.27
2024-03-04T21:05:27.789Z,23.83
2024-03-04T21:07:29.630Z,26.07
2024-03-04T21:11:33.232Z,22.88
2024-03-04T21:13:35.235Z,22.13
2024-03-04T21:15:38.373Z,23.10
2024-03-04T21:17:41.949Z,24.67
2024-03-04T21:19:43.829Z,25.20
2024-03-04T21:21:45.950Z,24.80
2024-03-04T21:23:48.286Z,24.27
2024-03-04T21:25:50.373Z,27.30
2024-03-04T21:27:53.881Z,24.17
2024-03-04T21:29:57.277Z,26.73
2024-03-04T21:32:02.784Z,26.57
2024-03-04T21:34:04.578Z,28.97
2024-03-04T21:38:08.687Z,21.38
2024-03-04T21:40:12.859Z,27.83
2024-03-04T21:42:18.117Z,24.80
2024-03-04T21:44:20.032Z,27.93
2024-03-04T21:46:22.080Z,26.07
2024-03-04T21:48:24.680Z,26.70
2024-03-04T21:50:26.509Z,27.97
2024-03-04T21:54:30.114Z,27.10
2024-03-04T21:56:31.931Z,27.47
2024-03-04T22:00:37.979Z,25.13
2024-03-04T22:02:40.502Z,24.33
2024-03-04T22:04:42.749Z,23.20
2024-03-04T22:06:47.558Z,27.97
2024-03-04T22:08:52.318Z,25.50
2024-03-04T22:10:54.250Z,21.73
2024-03-04T22:12:56.696Z,27.10
2024-03-04T22:14:58.621Z,22.93
2024-03-04T22:17:00.454Z,27.00
2024-03-04T22:21:05.096Z,26.10
2024-03-04T22:23:09.584Z,27.27
2024-03-04T22:25:11.714Z,26.13
2024-03-04T22:27:14.074Z,25.10
2024-03-04T22:29:16.059Z,25.30
2024-03-04T22:31:18.363Z,27.67
2024-03-04T22:33:20.276Z,25.47
2024-03-04T22:39:26.469Z,25.52
2024-03-04T22:41:28.956Z,26.40
2024-03-04T22:43:30.982Z,27.73
2024-03-04T22:45:34.230Z,20.77
2024-03-04T22:47:36.556Z,21.73
2024-03-04T22:49:38.418Z,28.60
2024-03-04T22:53:42.124Z,23.33
2024-03-04T22:55:44.035Z,28.97
2024-03-04T22:57:45.817Z,24.33
2024-03-04T22:59:47.749Z,28.73
2024-03-04T23:01:51.972Z,25.93
2024-03-04T23:03:55.447Z,23.63
2024-03-04T23:05:57.262Z,25.00
2024-03-04T23:10:00.956Z,22.88
2024-03-04T23:14:05.158Z,24.75
2024-03-04T23:16:09.925Z,27.93
2024-03-04T23:18:13.068Z,26.00
2024-03-04T23:20:15.154Z,24.67
2024-03-04T23:22:16.946Z,23.97
2024-03-04T23:26:20.747Z,24.05
2024-03-04T23:30:24.325Z,22.08
2024-03-04T23:32:28.332Z,22.43
2024-03-04T23:34:30.245Z,20.97
2024-03-04T23:36:32.229Z,24.13
2024-03-04T23:40:35.685Z,21.33
2024-03-04T23:44:40.080Z,22.88
2024-03-04T23:46:42.574Z,28.80
2024-03-04T23:48:44.611Z,25.13
2024-03-04T23:50:46.715Z,26.67
2024-03-04T23:52:49.147Z,23.37
2024-03-04T23:54:51.283Z,28.83
2024-03-04T23:56:53.110Z,31.10
